Time;durP1;ratioP1;P1;durP2;ratioP2;P2;SDS_P1;SDS_P2;PMS_P1;PMS_P2;Temp;Humidity;BMP_temperature;BMP_pressure;BME280_temperature;BME280_humidity;BME280_pressure;Samples;Min_cycle;Max_cycle;Signal;HPM_P1;HPM_P2
2023/04/17 00:00:52;;;;;;;35.03;20.53;;;;;;;;;;7632767;23;19997;-83
2023/04/17 00:03:53;;;;;;;33.20;20.53;;;;;;;;;;7632758;23;20005;-84
2023/04/17 00:06:53;;;;;;;36.53;19.80;;;;;;;;;;7633345;23;20009;-83
2023/04/17 00:09:55;;;;;;;40.26;21.40;;;;;;;;;;7633677;23;20004;-84
2023/04/17 00:12:55;;;;;;;37.92;23.55;;;;;;;;;;7632542;23;20417;-84
2023/04/17 00:15:56;;;;;;;33.07;18.03;;;;;;;;;;7633370;23;19997;-85
2023/04/17 00:18:57;;;;;;;41.58;21.92;;;;;;;;;;7632421;23;20020;-84
2023/04/17 00:21:57;;;;;;;42.90;22.83;;;;;;;;;;7633127;23;20001;-84
2023/04/17 00:24:58;;;;;;;36.97;20.58;;;;;;;;;;7632607;23;20027;-84
2023/04/17 00:28:00;;;;;;;32.13;19.15;;;;;;;;;;7633230;23;20012;-84
2023/04/17 00:31:03;;;;;;;33.90;20.35;;;;;;;;;;7632620;23;20021;-84
2023/04/17 00:34:03;;;;;;;25.83;16.38;;;;;;;;;;7633122;23;20005;-84
2023/04/17 00:37:03;;;;;;;30.23;17.80;;;;;;;;;;7632387;23;20001;-85
2023/04/17 00:40:04;;;;;;;27.40;15.70;;;;;;;;;;7632469;23;20024;-84
2023/04/17 00:43:05;;;;;;;27.90;17.17;;;;;;;;;;7632957;23;20386;-84
2023/04/17 00:46:06;;;;;;;32.17;18.35;;;;;;;;;;7630686;23;20005;-85
2023/04/17 00:49:07;;;;;;;26.07;16.77;;;;;;;;;;7632152;23;20005;-85
2023/04/17 00:52:07;;;;;;;28.13;16.93;;;;;;;;;;7632458;23;19993;-84
2023/04/17 00:55:09;;;;;;;28.92;18.35;;;;;;;;;;7631890;23;20021;-84
2023/04/17 00:58:10;;;;;;;29.60;18.23;;;;;;;;;;7633633;23;20508;-84
2023/04/17 01:01:10;;;;;;;29.98;17.77;;;;;;;;;;7630414;23;20005;-84
2023/04/17 01:04:11;;;;;;;28.17;17.60;;;;;;;;;;7632263;23;20506;-85
2023/04/17 01:07:11;;;;;;;33.40;18.67;;;;;;;;;;7632704;23;20040;-85
2023/04/17 01:10:11;;;;;;;43.07;23.63;;;;;;;;;;7633131;23;19996;-84
2023/04/17 01:13:13;;;;;;;30.97;18.47;;;;;;;;;;7632299;23;19994;-85
2023/04/17 01:16:13;;;;;;;35.63;17.90;;;;;;;;;;7632709;23;19993;-84
2023/04/17 01:19:14;;;;;;;33.67;19.80;;;;;;;;;;7632330;23;20004;-85
2023/04/17 01:22:16;;;;;;;57.97;28.00;;;;;;;;;;7632922;23;20029;-84
2023/04/17 01:25:16;;;;;;;;;;;;;;;;;;7632154;23;20020;-85
2023/04/17 01:28:16;;;;;;;33.85;19.35;;;;;;;;;;7631887;23;20309;-85
2023/04/17 01:31:17;;;;;;;45.40;22.63;;;;;;;;;;7631899;23;19985;-85
2023/04/17 01:34:17;;;;;;;44.70;24.47;;;;;;;;;;7632240;23;19994;-85
2023/04/17 01:37:17;;;;;;;53.07;27.87;;;;;;;;;;7632021;23;19997;-85
2023/04/17 01:40:17;;;;;;;47.83;25.35;;;;;;;;;;7630357;23;20005;-86
2023/04/17 01:43:18;;;;;;;52.33;28.08;;;;;;;;;;7631974;23;20004;-85
2023/04/17 01:46:18;;;;;;;39.33;23.10;;;;;;;;;;7632684;23;20143;-86
2023/04/17 01:49:18;;;;;;;39.13;20.33;;;;;;;;;;7631905;23;19997;-86
2023/04/17 01:52:19;;;;;;;47.93;23.53;;;;;;;;;;7632790;23;20048;-86
2023/04/17 01:55:19;;;;;;;45.47;23.25;;;;;;;;;;7632417;23;20017;-84
2023/04/17 01:58:19;;;;;;;44.67;23.73;;;;;;;;;;7631398;23;20370;-85
2023/04/17 02:01:19;;;;;;;38.53;22.03;;;;;;;;;;7632559;23;20002;-85
2023/04/17 02:04:21;;;;;;;42.78;20.40;;;;;;;;;;7633963;23;20401;-85
2023/04/17 02:07:21;;;;;;;39.88;21.40;;;;;;;;;;7632129;23;20001;-85
2023/04/17 02:10:21;;;;;;;45.03;22.60;;;;;;;;;;7632832;23;19985;-86
2023/04/17 02:13:22;;;;;;;37.90;19.77;;;;;;;;;;7631430;23;20326;-85
2023/04/17 02:16:22;;;;;;;38.85;21.48;;;;;;;;;;7632504;23;20057;-85
2023/04/17 02:19:24;;;;;;;39.37;21.97;;;;;;;;;;7632231;23;19994;-86
2023/04/17 02:22:24;;;;;;;39.50;21.00;;;;;;;;;;7637160;23;20032;-83
2023/04/17 02:25:25;;;;;;;39.73;21.40;;;;;;;;;;7632020;23;20072;-84
2023/04/17 02:28:25;;;;;;;48.40;23.90;;;;;;;;;;7630925;23;20002;-83
2023/04/17 02:31:25;;;;;;;44.07;24.90;;;;;;;;;;7632286;23;19993;-81
2023/04/17 02:34:26;;;;;;;45.13;21.08;;;;;;;;;;7631684;23;19997;-84
2023/04/17 02:37:26;;;;;;;47.63;22.57;;;;;;;;;;7631962;23;20005;-84
2023/04/17 02:40:26;;;;;;;48.67;25.10;;;;;;;;;;7634097;23;19997;-84
2023/04/17 02:43:26;;;;;;;37.07;20.97;;;;;;;;;;7634225;23;19994;-85
2023/04/17 02:46:26;;;;;;;37.60;21.67;;;;;;;;;;7634250;23;20000;-83
2023/04/17 02:49:27;;;;;;;31.75;19.92;;;;;;;;;;7633937;23;20465;-84
2023/04/17 02:52:28;;;;;;;37.58;20.10;;;;;;;;;;7634209;23;19993;-83
2023/04/17 02:55:28;;;;;;;33.67;18.87;;;;;;;;;;7634062;23;20029;-84
2023/04/17 02:58:28;;;;;;;38.17;17.87;;;;;;;;;;7636638;23;19997;-83
2023/04/17 03:01:28;;;;;;;36.90;18.95;;;;;;;;;;7646921;23;20008;-83
2023/04/17 03:04:29;;;;;;;38.93;18.97;;;;;;;;;;7645592;23;19994;-82
2023/04/17 03:07:29;;;;;;;45.60;23.38;;;;;;;;;;7635891;23;20025;-84
2023/04/17 03:10:29;;;;;;;40.63;21.30;;;;;;;;;;7633966;23;20311;-84
2023/04/17 03:13:31;;;;;;;46.10;23.40;;;;;;;;;;7634406;23;20070;-83
2023/04/17 03:16:31;;;;;;;42.38;20.88;;;;;;;;;;7641860;23;20479;-81
2023/04/17 03:19:32;;;;;;;40.97;22.07;;;;;;;;;;7651170;23;19993;-84
2023/04/17 03:22:32;;;;;;;38.00;21.07;;;;;;;;;;7648379;23;20008;-82
2023/04/17 03:25:32;;;;;;;41.10;21.97;;;;;;;;;;7639527;23;20001;-84
2023/04/17 03:28:33;;;;;;;46.53;22.50;;;;;;;;;;7632987;23;20365;-86
2023/04/17 03:31:33;;;;;;;41.20;21.30;;;;;;;;;;7633202;23;19990;-85
2023/04/17 03:34:33;;;;;;;39.97;21.53;;;;;;;;;;7632377;23;20001;-86
2023/04/17 03:37:33;;;;;;;35.47;18.77;;;;;;;;;;7630964;23;20000;-85
2023/04/17 03:40:33;;;;;;;42.15;21.83;;;;;;;;;;7633326;23;20025;-81
2023/04/17 03:43:34;;;;;;;42.07;24.10;;;;;;;;;;7632991;23;19998;-82
2023/04/17 03:46:34;;;;;;;44.75;21.83;;;;;;;;;;7634974;22;20005;-84
2023/04/17 03:49:35;;;;;;;35.47;19.73;;;;;;;;;;7632684;23;20035;-83
2023/04/17 03:52:35;;;;;;;35.63;20.47;;;;;;;;;;7632808;23;20029;-84
2023/04/17 03:55:36;;;;;;;34.27;19.33;;;;;;;;;;7630622;23;20017;-83
2023/04/17 03:58:36;;;;;;;35.23;18.60;;;;;;;;;;7630858;23;20009;-82
2023/04/17 04:01:37;;;;;;;36.97;20.37;;;;;;;;;;7636112;23;20080;-83
2023/04/17 04:04:37;;;;;;;31.02;17.15;;;;;;;;;;7632790;23;20078;-84
2023/04/17 04:07:37;;;;;;;36.45;20.05;;;;;;;;;;7634501;22;20488;-85
2023/04/17 04:10:38;;;;;;;38.50;20.97;;;;;;;;;;7633017;23;20425;-85
2023/04/17 04:13:38;;;;;;;42.47;23.73;;;;;;;;;;7631107;23;20002;-84
2023/04/17 04:16:38;;;;;;;36.97;22.03;;;;;;;;;;7631110;23;20002;-85
2023/04/17 04:19:39;;;;;;;37.37;20.87;;;;;;;;;;7630673;23;20074;-85
2023/04/17 04:22:40;;;;;;;38.47;21.70;;;;;;;;;;7632379;23;20021;-86
2023/04/17 04:25:42;;;;;;;42.33;21.42;;;;;;;;;;7633170;23;19994;-85
2023/04/17 04:28:42;;;;;;;38.53;21.40;;;;;;;;;;7632133;23;20487;-85
2023/04/17 04:31:45;;;;;;;37.83;21.73;;;;;;;;;;7633206;23;19994;-86
2023/04/17 04:34:45;;;;;;;41.10;22.55;;;;;;;;;;7634074;23;19990;-84
2023/04/17 04:37:45;;;;;;;42.83;24.67;;;;;;;;;;7636635;23;20095;-85
2023/04/17 04:40:51;;;;;;;47.43;24.17;;;;;;;;;;7607890;23;20109;-84
2023/04/17 04:43:52;;;;;;;41.30;24.00;;;;;;;;;;7631254;23;20006;-85
2023/04/17 04:46:54;;;;;;;44.35;24.73;;;;;;;;;;7632629;23;20028;-83
2023/04/17 04:49:54;;;;;;;;;;;;;;;;;;7632878;23;20032;-86
2023/04/17 04:52:54;;;;;;;46.72;24.73;;;;;;;;;;7633986;23;20321;-85
2023/04/17 04:55:55;;;;;;;46.97;25.60;;;;;;;;;;7632801;23;20025;-86
2023/04/17 04:58:55;;;;;;;68.53;34.33;;;;;;;;;;7631571;23;20005;-86
2023/04/17 05:01:55;;;;;;;64.93;35.83;;;;;;;;;;7633355;23;19997;-87
2023/04/17 05:04:56;;;;;;;64.33;36.87;;;;;;;;;;7638090;23;20055;-87
2023/04/17 05:07:56;;;;;;;61.33;35.37;;;;;;;;;;7642902;23;20009;-85
2023/04/17 05:10:56;;;;;;;44.45;27.08;;;;;;;;;;7649345;23;19998;-84
2023/04/17 05:13:57;;;;;;;58.70;34.43;;;;;;;;;;7649714;23;19997;-83
2023/04/17 05:16:57;;;;;;;53.07;28.43;;;;;;;;;;7648072;23;20000;-83
2023/04/17 05:19:57;;;;;;;36.25;23.85;;;;;;;;;;7646413;23;19996;-83
2023/04/17 05:22:57;;;;;;;51.27;28.53;;;;;;;;;;7639681;23;20480;-74
2023/04/17 05:25:57;;;;;;;37.60;23.30;;;;;;;;;;7631808;23;19994;-75
2023/04/17 05:28:58;;;;;;;42.73;24.27;;;;;;;;;;7631417;23;20009;-75
2023/04/17 05:31:58;;;;;;;52.83;25.97;;;;;;;;;;7631582;23;19998;-75
2023/04/17 05:34:58;;;;;;;40.38;25.48;;;;;;;;;;7634333;23;20040;-86
2023/04/17 05:37:58;;;;;;;46.40;25.10;;;;;;;;;;7635458;23;20001;-87
2023/04/17 05:41:00;;;;;;;36.33;23.23;;;;;;;;;;7638117;23;20004;-86
2023/04/17 05:44:00;;;;;;;;;;;;;;;;;;7637606;23;19994;-87
2023/04/17 05:47:00;;;;;;;35.95;22.23;;;;;;;;;;7638727;23;19906;-87
2023/04/17 05:50:01;;;;;;;32.07;21.37;;;;;;;;;;7640307;23;19994;-87
2023/04/17 05:53:01;;;;;;;32.23;20.63;;;;;;;;;;7639896;23;19997;-86
2023/04/17 05:56:02;;;;;;;30.27;20.37;;;;;;;;;;7637960;23;20028;-87
2023/04/17 05:59:02;;;;;;;29.27;19.42;;;;;;;;;;7637511;23;20014;-85
2023/04/17 06:02:03;;;;;;;23.07;13.87;;;;;;;;;;7638776;23;19993;-83
2023/04/17 06:05:05;;;;;;;24.08;16.98;;;;;;;;;;7635632;23;20043;-86
2023/04/17 06:08:07;;;;;;;24.67;16.00;;;;;;;;;;7638537;23;20076;-83
2023/04/17 06:11:07;;;;;;;20.60;13.95;;;;;;;;;;7639708;23;20004;-85
2023/04/17 06:14:08;;;;;;;25.77;17.83;;;;;;;;;;7637188;23;19998;-86
2023/04/17 06:17:08;;;;;;;22.27;15.80;;;;;;;;;;7637812;23;20005;-85
2023/04/17 06:20:10;;;;;;;29.43;19.43;;;;;;;;;;7639036;23;19997;-85
2023/04/17 06:23:10;;;;;;;;;;;;;;;;;;7636038;23;20021;-86
2023/04/17 06:26:11;;;;;;;40.42;23.88;;;;;;;;;;7638353;23;19979;-86
2023/04/17 06:29:14;;;;;;;35.55;22.13;;;;;;;;;;7634989;23;20070;-85
2023/04/17 06:32:14;;;;;;;39.97;23.05;;;;;;;;;;7634039;23;19998;-85
2023/04/17 06:35:14;;;;;;;37.90;23.43;;;;;;;;;;7633069;23;20422;-86
2023/04/17 06:38:15;;;;;;;45.43;24.60;;;;;;;;;;7633116;23;20330;-85
2023/04/17 06:41:15;;;;;;;39.60;23.38;;;;;;;;;;7633175;23;20001;-85
2023/04/17 06:44:15;;;;;;;34.73;21.53;;;;;;;;;;7632625;23;20004;-75
2023/04/17 06:47:15;;;;;;;34.43;19.83;;;;;;;;;;7629997;23;20040;-75
2023/04/17 06:50:17;;;;;;;31.97;21.93;;;;;;;;;;7631575;23;20009;-74
2023/04/17 06:53:17;;;;;;;37.78;21.50;;;;;;;;;;7631387;23;20501;-75
2023/04/17 06:56:18;;;;;;;36.45;21.55;;;;;;;;;;7632076;23;20021;-75
2023/04/17 06:59:18;;;;;;;32.03;21.13;;;;;;;;;;7632155;23;20032;-75
2023/04/17 07:02:18;;;;;;;32.40;18.80;;;;;;;;;;7631830;23;20064;-75
2023/04/17 07:05:19;;;;;;;34.77;21.80;;;;;;;;;;7631252;23;19997;-75
2023/04/17 07:08:21;;;;;;;29.67;18.93;;;;;;;;;;7631474;23;19997;-75
2023/04/17 07:11:21;;;;;;;31.73;18.73;;;;;;;;;;7631454;23;20010;-75
2023/04/17 07:14:21;;;;;;;32.43;19.40;;;;;;;;;;7631814;23;20110;-74
2023/04/17 07:17:22;;;;;;;27.20;19.33;;;;;;;;;;7630848;23;19994;-75
2023/04/17 07:20:22;;;;;;;34.47;18.63;;;;;;;;;;7631908;23;20409;-75
2023/04/17 07:23:22;;;;;;;37.60;20.07;;;;;;;;;;7632040;23;20004;-75
2023/04/17 07:26:22;;;;;;;32.00;18.73;;;;;;;;;;7626628;23;20080;-75
2023/04/17 07:29:23;;;;;;;36.43;20.67;;;;;;;;;;7629856;23;20096;-75
2023/04/17 07:32:23;;;;;;;25.23;16.52;;;;;;;;;;7631989;23;19998;-75
2023/04/17 07:35:26;;;;;;;25.57;17.00;;;;;;;;;;7631954;23;19996;-74
2023/04/17 07:38:27;;;;;;;35.83;20.98;;;;;;;;;;7627873;23;20008;-76
2023/04/17 07:41:28;;;;;;;31.80;19.15;;;;;;;;;;7631308;23;20330;-74
2023/04/17 07:44:28;;;;;;;41.63;17.90;;;;;;;;;;7645709;23;20002;-83
2023/04/17 07:47:29;;;;;;;25.07;15.90;;;;;;;;;;7643799;23;20445;-85
2023/04/17 07:50:31;;;;;;;28.92;15.75;;;;;;;;;;7634603;23;20068;-86
2023/04/17 07:53:31;;;;;;;31.45;16.70;;;;;;;;;;7632855;23;19994;-85
2023/04/17 07:56:33;;;;;;;26.43;14.97;;;;;;;;;;7632080;23;20033;-85
2023/04/17 07:59:35;;;;;;;29.27;15.20;;;;;;;;;;7632332;23;19997;-85
2023/04/17 08:02:35;;;;;;;28.40;14.88;;;;;;;;;;7633846;23;20508;-85
2023/04/17 08:05:35;;;;;;;25.40;15.02;;;;;;;;;;7633107;23;19997;-80
2023/04/17 08:08:36;;;;;;;17.37;12.03;;;;;;;;;;7630062;23;20357;-82
2023/04/17 08:11:37;;;;;;;18.60;11.10;;;;;;;;;;7632982;23;19998;-84
2023/04/17 08:14:39;;;;;;;20.80;11.27;;;;;;;;;;7630790;23;20308;-85
2023/04/17 08:17:40;;;;;;;23.92;12.38;;;;;;;;;;7632192;23;19998;-85
2023/04/17 08:20:40;;;;;;;17.97;10.73;;;;;;;;;;7630099;23;20006;-84
2023/04/17 08:23:40;;;;;;;19.60;11.97;;;;;;;;;;7631650;23;20075;-85
2023/04/17 08:26:41;;;;;;;20.92;11.30;;;;;;;;;;7631656;23;20019;-83
2023/04/17 08:29:42;;;;;;;18.80;11.80;;;;;;;;;;7632504;23;19997;-86
2023/04/17 08:32:42;;;;;;;;;;;;;;;;;;7632191;23;19989;-83
2023/04/17 08:35:43;;;;;;;16.97;10.73;;;;;;;;;;7632493;23;20229;-82
2023/04/17 08:38:44;;;;;;;16.23;10.43;;;;;;;;;;7630355;23;20005;-85
2023/04/17 08:41:49;;;;;;;18.27;9.70;;;;;;;;;;7631186;23;19998;-83
2023/04/17 08:44:50;;;;;;;19.65;9.38;;;;;;;;;;7632244;23;20036;-84
2023/04/17 08:47:50;;;;;;;19.40;9.93;;;;;;;;;;7630680;23;20095;-84
2023/04/17 08:50:51;;;;;;;18.90;10.67;;;;;;;;;;7632324;23;20060;-86
2023/04/17 08:53:51;;;;;;;16.65;10.55;;;;;;;;;;7632700;23;19998;-84
2023/04/17 08:56:56;;;;;;;24.25;11.88;;;;;;;;;;7631471;23;20063;-85
2023/04/17 08:59:56;;;;;;;21.20;12.90;;;;;;;;;;7632728;23;20008;-84
2023/04/17 09:02:58;;;;;;;16.98;9.27;;;;;;;;;;7631848;23;19994;-76
2023/04/17 09:05:58;;;;;;;14.82;9.02;;;;;;;;;;7629356;23;20497;-75
2023/04/17 09:09:02;;;;;;;15.90;9.67;;;;;;;;;;7631314;23;20016;-75
2023/04/17 09:12:09;;;;;;;19.58;11.73;;;;;;;;;;7631810;23;19989;-75
2023/04/17 09:15:16;;;;;;;15.65;9.07;;;;;;;;;;7631472;23;19990;-75
2023/04/17 09:18:21;;;;;;;15.60;8.40;;;;;;;;;;7631621;23;19998;-75
2023/04/17 09:21:26;;;;;;;11.68;7.28;;;;;;;;;;7631296;23;20025;-75
2023/04/17 09:24:33;;;;;;;9.90;6.05;;;;;;;;;;7631755;23;20043;-75
2023/04/17 09:27:33;;;;;;;11.35;6.72;;;;;;;;;;7631315;23;20002;-75
2023/04/17 09:30:38;;;;;;;10.90;6.40;;;;;;;;;;7631424;23;20005;-75
2023/04/17 09:33:54;;;;;;;15.98;8.38;;;;;;;;;;7631344;23;19997;-75
2023/04/17 09:36:54;;;;;;;11.82;6.82;;;;;;;;;;7629063;23;20048;-75
2023/04/17 09:39:56;;;;;;;14.97;7.53;;;;;;;;;;7629398;23;19993;-75
2023/04/17 09:43:00;;;;;;;19.05;10.27;;;;;;;;;;7628051;23;20448;-75
2023/04/17 09:46:02;;;;;;;20.23;9.10;;;;;;;;;;7630925;23;19997;-75
2023/04/17 09:49:06;;;;;;;12.98;7.40;;;;;;;;;;7630046;23;20441;-75
2023/04/17 09:52:07;;;;;;;13.95;7.55;;;;;;;;;;7629518;23;20434;-76
2023/04/17 09:55:09;;;;;;;11.93;8.40;;;;;;;;;;7630960;23;20080;-75
2023/04/17 09:58:10;;;;;;;13.32;7.30;;;;;;;;;;7630721;23;20659;-75
2023/04/17 10:01:12;;;;;;;11.47;6.03;;;;;;;;;;7632415;23;20001;-74
2023/04/17 10:04:13;;;;;;;12.43;7.57;;;;;;;;;;7632018;23;20005;-75
2023/04/17 10:07:15;;;;;;;14.37;7.70;;;;;;;;;;7631969;23;20438;-75
2023/04/17 10:10:25;;;;;;;13.68;8.55;;;;;;;;;;7632490;23;20001;-75
2023/04/17 10:13:26;;;;;;;14.55;7.03;;;;;;;;;;7631282;23;20041;-85
2023/04/17 10:16:36;;;;;;;14.13;7.95;;;;;;;;;;7632728;23;20004;-84
2023/04/17 10:19:37;;;;;;;16.58;9.80;;;;;;;;;;7630857;23;20021;-84
2023/04/17 10:22:40;;;;;;;16.90;10.32;;;;;;;;;;7633575;23;19994;-84
2023/04/17 10:25:40;;;;;;;18.85;10.07;;;;;;;;;;7631657;23;20002;-83
2023/04/17 10:28:48;;;;;;;14.97;10.37;;;;;;;;;;7632865;23;19997;-83
2023/04/17 10:32:07;;;;;;;14.25;10.13;;;;;;;;;;7631021;23;20005;-86
2023/04/17 10:35:16;;;;;;;20.42;13.00;;;;;;;;;;7631552;23;19989;-84
2023/04/17 10:38:28;;;;;;;19.20;12.73;;;;;;;;;;7631315;23;19997;-82
2023/04/17 10:41:30;;;;;;;20.15;11.77;;;;;;;;;;7632116;23;20402;-83
2023/04/17 10:44:34;;;;;;;18.48;11.68;;;;;;;;;;7631831;23;20343;-84
2023/04/17 10:47:37;;;;;;;15.98;10.65;;;;;;;;;;7631672;23;20006;-83
2023/04/17 10:50:38;;;;;;;15.90;10.20;;;;;;;;;;7636756;23;20004;-86
2023/04/17 10:53:40;;;;;;;16.03;10.03;;;;;;;;;;7633803;23;19998;-84
2023/04/17 10:56:40;;;;;;;;;;;;;;;;;;7633710;23;20017;-79
2023/04/17 10:59:42;;;;;;;18.30;11.05;;;;;;;;;;7633020;23;19930;-85
2023/04/17 11:02:48;;;;;;;17.75;10.38;;;;;;;;;;7631240;23;19997;-82
2023/04/17 11:05:51;;;;;;;16.83;10.77;;;;;;;;;;7633134;23;19997;-85
2023/04/17 11:08:53;;;;;;;15.98;10.95;;;;;;;;;;7633015;23;20024;-84
2023/04/17 11:11:54;;;;;;;18.77;11.88;;;;;;;;;;7645258;23;20001;-83
2023/04/17 11:14:59;;;;;;;18.80;12.50;;;;;;;;;;7647861;23;20004;-89
2023/04/17 11:18:01;;;;;;;26.92;16.85;;;;;;;;;;7642014;23;19997;-85
2023/04/17 11:21:01;;;;;;;22.40;14.13;;;;;;;;;;7645661;23;19998;-88
2023/04/17 11:24:02;;;;;;;22.17;14.80;;;;;;;;;;7635111;23;20009;-75
2023/04/17 11:27:02;;;;;;;25.33;14.60;;;;;;;;;;7631904;23;19997;-75
2023/04/17 11:30:02;;;;;;;19.60;13.77;;;;;;;;;;7631386;23;19990;-75
2023/04/17 11:33:03;;;;;;;17.70;11.50;;;;;;;;;;7632046;23;20416;-74
2023/04/17 11:36:07;;;;;;;18.25;11.85;;;;;;;;;;7632000;23;19993;-75
2023/04/17 11:39:07;;;;;;;18.50;11.07;;;;;;;;;;7632089;22;19997;-75
2023/04/17 11:42:07;;;;;;;15.00;9.17;;;;;;;;;;7631474;23;20005;-74
2023/04/17 11:45:09;;;;;;;21.10;9.53;;;;;;;;;;7631498;23;19997;-72
2023/04/17 11:48:11;;;;;;;17.02;8.70;;;;;;;;;;7632003;23;20073;-72
2023/04/17 11:51:16;;;;;;;14.77;8.45;;;;;;;;;;7631797;23;20080;-73
2023/04/17 11:54:28;;;;;;;14.82;8.82;;;;;;;;;;7631164;23;20067;-73
2023/04/17 11:57:39;;;;;;;17.38;9.15;;;;;;;;;;7631539;23;20008;-73
2023/04/17 12:00:40;;;;;;;14.38;9.13;;;;;;;;;;7632048;23;19998;-73
2023/04/17 12:03:40;;;;;;;16.30;10.30;;;;;;;;;;7632545;23;20440;-73
2023/04/17 12:06:40;;;;;;;18.00;10.70;;;;;;;;;;7631575;23;20311;-74
2023/04/17 12:09:41;;;;;;;16.53;10.70;;;;;;;;;;7630373;23;20013;-74
2023/04/17 12:12:44;;;;;;;18.33;12.73;;;;;;;;;;7631249;23;20013;-74
2023/04/17 12:15:44;;;;;;;23.70;11.85;;;;;;;;;;7631576;23;20373;-73
2023/04/17 12:18:45;;;;;;;24.50;13.50;;;;;;;;;;7631395;23;20001;-73
2023/04/17 12:21:48;;;;;;;21.70;13.27;;;;;;;;;;7632642;23;19997;-73
2023/04/17 12:24:48;;;;;;;23.35;14.73;;;;;;;;;;7630504;23;20059;-73
2023/04/17 12:27:49;;;;;;;23.77;15.50;;;;;;;;;;7631850;23;19998;-74
2023/04/17 12:30:50;;;;;;;24.90;15.70;;;;;;;;;;7631719;23;20049;-73
2023/04/17 12:33:51;;;;;;;24.67;14.02;;;;;;;;;;7631862;23;20043;-73
2023/04/17 12:36:51;;;;;;;24.50;16.07;;;;;;;;;;7631947;23;19993;-73
2023/04/17 12:39:51;;;;;;;22.87;14.70;;;;;;;;;;7631751;23;20005;-73
2023/04/17 12:42:52;;;;;;;21.45;13.70;;;;;;;;;;7631222;23;20000;-73
2023/04/17 12:45:52;;;;;;;23.83;14.83;;;;;;;;;;7631544;23;20001;-73
2023/04/17 12:48:57;;;;;;;23.23;14.90;;;;;;;;;;7631398;23;20380;-73
2023/04/17 12:51:57;;;;;;;24.17;16.10;;;;;;;;;;7631956;23;20151;-73
2023/04/17 12:54:58;;;;;;;27.67;17.03;;;;;;;;;;7631300;23;20017;-73
2023/04/17 12:57:59;;;;;;;28.98;16.95;;;;;;;;;;7631457;23;20001;-73
2023/04/17 13:01:00;;;;;;;37.00;21.13;;;;;;;;;;7631294;23;20023;-73
2023/04/17 13:04:00;;;;;;;30.80;19.60;;;;;;;;;;7631704;23;19998;-74
2023/04/17 13:07:00;;;;;;;29.17;17.97;;;;;;;;;;7630729;23;19993;-74
2023/04/17 13:10:01;;;;;;;27.98;18.02;;;;;;;;;;7631674;23;19998;-75
2023/04/17 13:13:03;;;;;;;32.43;19.97;;;;;;;;;;7631272;23;20412;-76
2023/04/17 13:16:03;;;;;;;31.75;21.30;;;;;;;;;;7629950;23;20009;-75
2023/04/17 13:19:04;;;;;;;33.37;21.00;;;;;;;;;;7630727;22;19997;-73
2023/04/17 13:22:04;;;;;;;34.15;20.25;;;;;;;;;;7628133;23;20001;-75
2023/04/17 13:25:04;;;;;;;29.47;18.93;;;;;;;;;;7629291;23;19993;-73
2023/04/17 13:28:05;;;;;;;34.27;19.87;;;;;;;;;;7630926;23;20426;-73
2023/04/17 13:31:09;;;;;;;29.13;18.33;;;;;;;;;;7631043;23;20029;-74
2023/04/17 13:34:10;;;;;;;29.40;18.80;;;;;;;;;;7635734;23;20128;-87
2023/04/17 13:37:13;;;;;;;30.73;17.70;;;;;;;;;;7643066;23;20064;-87
2023/04/17 13:40:14;;;;;;;26.95;16.27;;;;;;;;;;7636292;23;20059;-83
2023/04/17 13:43:14;;;;;;;27.80;18.60;;;;;;;;;;7631237;23;19994;-85
2023/04/17 13:46:15;;;;;;;30.93;16.33;;;;;;;;;;7637142;23;19994;-83
2023/04/17 13:49:15;;;;;;;26.90;16.10;;;;;;;;;;7642964;23;20001;-87
2023/04/17 13:52:15;;;;;;;29.47;17.73;;;;;;;;;;7639556;23;20501;-88
2023/04/17 13:55:16;;;;;;;30.03;18.67;;;;;;;;;;7636728;23;20022;-86
2023/04/17 13:58:16;;;;;;;35.70;20.07;;;;;;;;;;7649017;23;19997;-80
2023/04/17 14:01:16;;;;;;;39.70;20.00;;;;;;;;;;7650731;23;20020;-83
2023/04/17 14:04:17;;;;;;;35.27;21.27;;;;;;;;;;7644436;23;19998;-84
2023/04/17 14:07:17;;;;;;;28.80;19.10;;;;;;;;;;7646771;23;19994;-86
2023/04/17 14:10:17;;;;;;;29.30;21.67;;;;;;;;;;7640262;23;20043;-86
2023/04/17 14:13:17;;;;;;;24.37;15.30;;;;;;;;;;7640923;23;20000;-86
2023/04/17 14:16:18;;;;;;;25.75;16.55;;;;;;;;;;7639149;23;19994;-86
2023/04/17 14:19:18;;;;;;;26.90;16.90;;;;;;;;;;7642766;23;19997;-87
2023/04/17 14:22:19;;;;;;;25.17;15.70;;;;;;;;;;7641262;23;19997;-86
2023/04/17 14:25:19;;;;;;;19.70;14.43;;;;;;;;;;7649278;23;19997;-85
2023/04/17 14:28:20;;;;;;;27.23;15.30;;;;;;;;;;7633771;23;20052;-85
2023/04/17 14:31:20;;;;;;;31.60;21.67;;;;;;;;;;7634175;23;19993;-84
2023/04/17 14:34:21;;;;;;;27.10;19.47;;;;;;;;;;7632425;23;20072;-84
2023/04/17 14:37:21;;;;;;;27.98;16.25;;;;;;;;;;7634570;23;20778;-85
2023/04/17 14:40:21;;;;;;;25.03;15.10;;;;;;;;;;7633388;23;20037;-85
2023/04/17 14:43:22;;;;;;;23.83;15.53;;;;;;;;;;7632852;23;20290;-74
2023/04/17 14:46:23;;;;;;;27.00;15.55;;;;;;;;;;7630799;23;19998;-74
2023/04/17 14:49:23;;;;;;;23.47;14.30;;;;;;;;;;7631049;23;20012;-74
2023/04/17 14:52:24;;;;;;;20.53;14.03;;;;;;;;;;7631219;23;20042;-74
2023/04/17 14:55:24;;;;;;;26.33;15.70;;;;;;;;;;7630277;23;20044;-74
2023/04/17 14:58:26;;;;;;;25.03;14.63;;;;;;;;;;7630331;23;19997;-74
2023/04/17 15:01:26;;;;;;;27.95;17.30;;;;;;;;;;7630615;23;19993;-74
2023/04/17 15:04:26;;;;;;;26.23;15.20;;;;;;;;;;7632425;23;20048;-74
2023/04/17 15:07:26;;;;;;;23.93;16.27;;;;;;;;;;7628909;23;20010;-74
2023/04/17 15:10:27;;;;;;;28.63;15.05;;;;;;;;;;7632025;23;19993;-74
2023/04/17 15:13:27;;;;;;;29.50;17.53;;;;;;;;;;7629073;23;19998;-75
2023/04/17 15:16:27;;;;;;;29.53;16.73;;;;;;;;;;7630879;23;19997;-74
2023/04/17 15:19:27;;;;;;;32.03;16.77;;;;;;;;;;7630559;23;20001;-74
2023/04/17 15:22:27;;;;;;;30.23;15.53;;;;;;;;;;7631224;23;20381;-75
2023/04/17 15:25:28;;;;;;;27.63;17.65;;;;;;;;;;7629974;23;20426;-74
2023/04/17 15:28:29;;;;;;;31.07;15.53;;;;;;;;;;7631686;23;20055;-74
2023/04/17 15:31:29;;;;;;;29.15;17.20;;;;;;;;;;7631146;23;20021;-74
2023/04/17 15:34:30;;;;;;;30.17;17.57;;;;;;;;;;7631316;23;20084;-74
2023/04/17 15:37:30;;;;;;;28.03;14.73;;;;;;;;;;7630150;23;20382;-74
2023/04/17 15:40:30;;;;;;;22.77;14.73;;;;;;;;;;7629384;23;20003;-74
2023/04/17 15:43:30;;;;;;;24.33;14.67;;;;;;;;;;7630021;23;19998;-74
2023/04/17 15:46:31;;;;;;;32.00;16.00;;;;;;;;;;7629951;23;20027;-75
2023/04/17 15:49:31;;;;;;;24.07;14.50;;;;;;;;;;7630414;23;20009;-74
2023/04/17 15:52:31;;;;;;;26.53;15.97;;;;;;;;;;7630076;23;20025;-81
2023/04/17 15:55:32;;;;;;;27.87;15.43;;;;;;;;;;7630836;23;20106;-81
2023/04/17 15:58:33;;;;;;;31.07;17.13;;;;;;;;;;7604531;23;20109;-81
2023/04/17 16:01:33;;;;;;;36.17;22.10;;;;;;;;;;7630543;23;20001;-81
2023/04/17 16:04:33;;;;;;;45.63;25.30;;;;;;;;;;7630525;23;20324;-74
2023/04/17 16:07:33;;;;;;;33.58;19.27;;;;;;;;;;7627566;23;20005;-72
2023/04/17 16:10:33;;;;;;;32.97;20.40;;;;;;;;;;7628104;23;19997;-75
2023/04/17 16:13:33;;;;;;;30.10;21.03;;;;;;;;;;7628686;23;20068;-73
2023/04/17 16:16:34;;;;;;;30.47;19.67;;;;;;;;;;7628084;23;19998;-73
2023/04/17 16:19:34;;;;;;;34.87;19.90;;;;;;;;;;7628485;23;20017;-73
2023/04/17 16:22:37;;;;;;;34.50;19.23;;;;;;;;;;7628369;23;19998;-74
2023/04/17 16:25:37;;;;;;;28.45;16.25;;;;;;;;;;7629130;23;20001;-74
2023/04/17 16:28:38;;;;;;;29.23;18.27;;;;;;;;;;7629022;23;20051;-74
2023/04/17 16:31:38;;;;;;;37.43;21.40;;;;;;;;;;7628181;23;20379;-74
2023/04/17 16:34:38;;;;;;;33.97;19.80;;;;;;;;;;7628836;23;19993;-76
2023/04/17 16:37:38;;;;;;;40.43;21.03;;;;;;;;;;7628456;23;20396;-75
2023/04/17 16:40:39;;;;;;;28.52;17.73;;;;;;;;;;7628917;23;20009;-74
2023/04/17 16:43:41;;;;;;;30.87;17.47;;;;;;;;;;7629212;23;20325;-74
2023/04/17 16:46:41;;;;;;;30.10;16.20;;;;;;;;;;7628321;23;20004;-74
2023/04/17 16:49:41;;;;;;;25.45;13.50;;;;;;;;;;7628891;23;20002;-74
2023/04/17 16:52:41;;;;;;;18.03;10.13;;;;;;;;;;7628531;23;19998;-74
2023/04/17 16:55:42;;;;;;;21.00;12.55;;;;;;;;;;7628332;23;20006;-74
2023/04/17 16:58:42;;;;;;;18.90;11.47;;;;;;;;;;7628187;23;20032;-75
2023/04/17 17:01:42;;;;;;;23.00;13.03;;;;;;;;;;7628996;23;20016;-74
2023/04/17 17:04:43;;;;;;;19.55;11.95;;;;;;;;;;7628267;23;20001;-74
2023/04/17 17:07:43;;;;;;;22.83;13.38;;;;;;;;;;7629440;23;20339;-73
2023/04/17 17:10:44;;;;;;;32.07;15.97;;;;;;;;;;7632221;22;20000;-73
2023/04/17 17:13:45;;;;;;;32.10;16.23;;;;;;;;;;7630195;23;19989;-73
2023/04/17 17:16:46;;;;;;;36.80;19.43;;;;;;;;;;7629695;23;20085;-73
2023/04/17 17:19:46;;;;;;;30.92;18.95;;;;;;;;;;7629672;23;20001;-73
2023/04/17 17:22:48;;;;;;;36.15;21.63;;;;;;;;;;7629315;23;20008;-73
2023/04/17 17:25:48;;;;;;;32.08;18.17;;;;;;;;;;7629751;23;20001;-73
2023/04/17 17:28:51;;;;;;;27.90;16.20;;;;;;;;;;7629027;23;20425;-74
2023/04/17 17:31:51;;;;;;;32.05;15.98;;;;;;;;;;7629347;23;20059;-74
2023/04/17 17:34:51;;;;;;;27.30;15.03;;;;;;;;;;7629333;23;19993;-73
2023/04/17 17:37:52;;;;;;;28.60;15.30;;;;;;;;;;7630108;23;20008;-73